Time;durP1;ratioP1;P1;durP2;ratioP2;P2;SDS_P1;SDS_P2;PMS_P1;PMS_P2;Temp;Humidity;BMP_temperature;BMP_pressure;BME280_temperature;BME280_humidity;BME280_pressure;Samples;Min_cycle;Max_cycle;Signal;HPM_P1;HPM_P2
2021/09/12 00:01:10;;;;;;;29.10;26.70;;;;;;;18.06;75.21;100447.84;115121;1203;22005;-82
2021/09/12 00:03:40;;;;;;;31.20;28.10;;;;;;;18.06;75.23;100448.00;114990;1204;22999;-82
2021/09/12 00:06:09;;;;;;;30.60;27.90;;;;;;;18.07;75.19;100449.95;114995;1200;23459;-82
2021/09/12 00:08:39;;;;;;;29.70;27.20;;;;;;;18.07;75.26;100447.39;115243;1201;22447;-82
2021/09/12 00:11:08;;;;;;;30.20;27.40;;;;;;;18.08;75.22;100449.94;116067;1200;21980;-82
2021/09/12 00:13:38;;;;;;;29.20;26.50;;;;;;;18.08;75.33;100451.83;116299;1196;21920;-83
2021/09/12 00:16:07;;;;;;;30.50;28.00;;;;;;;18.09;75.41;100452.31;116270;1197;21891;-82
2021/09/12 00:18:37;;;;;;;29.80;27.30;;;;;;;18.09;75.41;100452.02;116335;1196;21893;-82
2021/09/12 00:21:06;;;;;;;30.80;28.20;;;;;;;18.10;75.33;100452.10;116331;1194;22198;-82
2021/09/12 00:23:35;;;;;;;28.30;25.90;;;;;;;18.11;75.44;100454.68;116694;1193;22270;-81
2021/09/12 00:26:05;;;;;;;30.90;28.30;;;;;;;18.10;75.43;100451.48;116634;1193;22928;-82
2021/09/12 00:28:35;;;;;;;30.20;27.50;;;;;;;18.07;75.35;100450.88;116687;1193;21950;-83
2021/09/12 00:31:04;;;;;;;30.60;28.00;;;;;;;18.06;75.44;100453.55;116748;1190;22975;-81
2021/09/12 00:33:34;;;;;;;29.30;26.70;;;;;;;18.06;75.62;100450.92;116780;1191;22600;-81
2021/09/12 00:36:04;;;;;;;30.30;27.50;;;;;;;18.06;75.57;100451.30;116501;1192;23554;-80
2021/09/12 00:38:33;;;;;;;30.90;27.90;;;;;;;18.05;75.49;100452.17;116474;1190;21935;-81
2021/09/12 00:41:03;;;;;;;30.10;27.50;;;;;;;18.03;75.57;100452.59;116535;1192;23659;-81
2021/09/12 00:43:32;;;;;;;33.20;30.10;;;;;;;18.02;75.71;100450.58;116743;1193;21931;-81
2021/09/12 00:46:06;;;;;;;33.80;30.80;;;;;;;18.01;75.60;100453.38;116499;1193;22719;-81
2021/09/12 00:48:37;;;;;;;35.70;32.10;;;;;;;17.99;75.51;100459.92;116421;1190;21911;-81
2021/09/12 00:51:06;;;;;;;35.20;31.90;;;;;;;17.95;75.29;100462.22;116734;1193;21898;-81
2021/09/12 00:53:37;;;;;;;35.90;32.50;;;;;;;17.91;75.06;100455.41;116456;1193;21898;-82
2021/09/12 00:56:06;;;;;;;36.10;32.60;;;;;;;17.86;75.25;100452.32;116650;1193;21877;-81
2021/09/12 00:58:37;;;;;;;33.80;30.60;;;;;;;17.81;75.04;100449.70;116498;1192;21900;-80
2021/09/12 01:01:07;;;;;;;33.50;30.50;;;;;;;17.77;75.13;100451.48;116427;1192;21899;-81
2021/09/12 01:03:37;;;;;;;34.90;31.60;;;;;;;17.74;75.14;100451.59;116438;1190;22851;-80
2021/09/12 01:06:07;;;;;;;38.00;34.30;;;;;;;17.70;75.09;100451.27;116480;1192;22048;-80
2021/09/12 01:08:39;;;;;;;36.00;32.60;;;;;;;17.67;75.24;100449.78;116528;1187;24181;-80
2021/09/12 01:11:12;;;;;;;35.60;32.20;;;;;;;17.60;74.90;100451.20;116557;1192;22927;-82
2021/09/12 01:13:43;;;;;;;35.30;31.90;;;;;;;17.50;75.08;100454.30;116441;1195;21869;-82
2021/09/12 01:16:20;;;;;;;36.60;33.30;;;;;;;17.45;75.54;100453.09;116175;1197;23471;-81
2021/09/12 01:18:50;;;;;;;36.00;32.30;;;;;;;17.45;76.10;100461.11;116314;1192;21912;-81
2021/09/12 01:21:23;;;;;;;35.70;32.30;;;;;;;17.48;76.13;100458.96;116287;1197;24187;-81
2021/09/12 01:23:53;;;;;;;35.40;32.10;;;;;;;17.50;76.13;100460.11;116283;1194;21906;-83
2021/09/12 01:26:26;;;;;;;35.10;32.00;;;;;;;17.51;76.11;100458.83;115922;1198;21919;-82
2021/09/12 01:28:55;;;;;;;34.30;31.30;;;;;;;17.51;75.95;100459.00;115904;1198;21956;-81
2021/09/12 01:31:29;;;;;;;35.90;32.80;;;;;;;17.53;76.08;100457.23;115984;1195;21912;-81
2021/09/12 01:34:00;;;;;;;35.50;32.40;;;;;;;17.53;76.07;100454.27;116111;1198;23465;-83
2021/09/12 01:36:31;;;;;;;36.10;32.90;;;;;;;17.54;76.02;100458.27;116208;1195;21894;-81
2021/09/12 01:39:02;;;;;;;33.90;31.00;;;;;;;17.55;76.19;100457.04;116384;1193;22413;-80
2021/09/12 01:41:33;;;;;;;34.90;31.70;;;;;;;17.57;76.34;100458.31;116316;1196;22639;-81
2021/09/12 01:44:06;;;;;;;33.80;30.80;;;;;;;17.60;76.31;100456.66;116047;1197;22644;-82
2021/09/12 01:46:35;;;;;;;34.20;30.60;;;;;;;17.61;76.20;100451.77;116497;1193;21924;-82
2021/09/12 01:49:09;;;;;;;33.70;30.40;;;;;;;17.62;76.31;100450.16;115594;1201;22055;-81
2021/09/12 01:51:39;;;;;;;34.40;31.20;;;;;;;17.64;76.31;100446.49;115635;1200;23024;-81
2021/09/12 01:54:09;;;;;;;30.90;27.90;;;;;;;17.65;76.27;100444.65;115550;1200;21940;-80
2021/09/12 01:56:38;;;;;;;29.90;27.20;;;;;;;17.65;76.32;100443.98;115200;1204;22930;-82
2021/09/12 01:59:08;;;;;;;31.50;28.60;;;;;;;17.66;76.49;100447.02;115233;1201;21907;-81
2021/09/12 02:01:37;;;;;;;30.90;28.10;;;;;;;17.68;76.38;100448.01;115513;1196;21914;-81
2021/09/12 02:04:07;;;;;;;30.50;27.80;;;;;;;17.70;76.40;100449.67;115607;1200;23478;-81
2021/09/12 02:06:37;;;;;;;34.40;31.40;;;;;;;17.72;76.58;100452.06;115608;1200;23617;-82
2021/09/12 02:09:06;;;;;;;31.50;28.60;;;;;;;17.73;76.51;100456.65;115817;1198;22755;-82
2021/09/12 02:11:35;;;;;;;28.20;25.80;;;;;;;17.74;76.47;100451.79;115779;1194;21919;-83
2021/09/12 02:14:05;;;;;;;28.70;26.20;;;;;;;17.74;76.58;100448.52;115686;1198;23596;-82
2021/09/12 02:16:34;;;;;;;24.80;22.80;;;;;;;17.76;76.59;100452.46;116145;1196;23522;-84
2021/09/12 02:19:04;;;;;;;24.80;22.70;;;;;;;17.76;76.71;100454.71;115988;1198;23543;-82
2021/09/12 02:21:33;;;;;;;24.80;22.70;;;;;;;17.77;76.93;100454.68;116052;1192;21899;-83
2021/09/12 02:24:03;;;;;;;23.20;21.10;;;;;;;17.80;77.00;100454.47;115790;1195;21911;-82
2021/09/12 02:26:33;;;;;;;23.10;21.20;;;;;;;17.82;77.15;100451.87;115552;1203;21908;-83
2021/09/12 02:29:04;;;;;;;22.60;20.80;;;;;;;17.85;77.20;100455.77;115159;1203;24207;-82
2021/09/12 02:31:33;;;;;;;23.70;21.70;;;;;;;17.88;77.26;100458.55;115288;1201;21910;-81
2021/09/12 02:34:03;;;;;;;25.00;22.90;;;;;;;17.92;77.25;100462.23;115259;1201;22251;-82
2021/09/12 02:36:32;;;;;;;23.90;21.70;;;;;;;17.94;77.32;100461.89;115242;1201;21945;-81
2021/09/12 02:39:03;;;;;;;22.20;20.40;;;;;;;17.96;77.30;100460.95;115266;1204;21913;-81
2021/09/12 02:41:32;;;;;;;22.60;20.80;;;;;;;17.97;77.24;100456.16;115374;1203;22370;-81
2021/09/12 02:44:02;;;;;;;23.60;21.70;;;;;;;17.97;77.13;100454.11;115540;1200;23750;-83
2021/09/12 02:46:32;;;;;;;22.80;21.00;;;;;;;17.98;77.30;100448.60;115789;1198;21928;-82
2021/09/12 02:49:02;;;;;;;23.20;21.00;;;;;;;18.00;77.31;100449.85;116361;1192;21892;-81
2021/09/12 02:51:31;;;;;;;24.50;22.30;;;;;;;18.00;77.23;100453.34;116362;1193;21968;-83
2021/09/12 02:54:00;;;;;;;23.30;21.30;;;;;;;18.00;77.17;100455.65;116145;1193;21925;-81
2021/09/12 02:56:30;;;;;;;24.30;22.20;;;;;;;17.99;77.05;100458.08;116145;1195;23482;-81
2021/09/12 02:58:59;;;;;;;22.20;20.40;;;;;;;17.97;76.95;100456.41;116210;1195;23575;-81
2021/09/12 03:01:29;;;;;;;22.80;21.00;;;;;;;17.96;76.97;100452.70;116360;1195;23548;-82
2021/09/12 03:03:59;;;;;;;24.20;22.40;;;;;;;17.94;77.00;100452.61;116459;1190;21884;-82
2021/09/12 03:06:29;;;;;;;25.80;22.50;;;;;;;17.93;77.03;100454.41;116453;1193;22309;-81
2021/09/12 03:08:58;;;;;;;24.90;22.70;;;;;;;17.90;77.01;100455.50;116699;1193;21895;-81
2021/09/12 03:11:27;;;;;;;25.20;23.10;;;;;;;17.87;76.89;100456.30;116723;1192;21910;-81
2021/09/12 03:13:58;;;;;;;22.50;20.70;;;;;;;17.84;77.01;100455.98;116378;1193;21912;-81
2021/09/12 03:16:27;;;;;;;24.80;22.80;;;;;;;17.81;77.03;100456.27;116286;1195;23554;-81
2021/09/12 03:18:56;;;;;;;24.70;22.60;;;;;;;17.79;77.00;100460.36;116310;1197;22926;-81
2021/09/12 03:21:25;;;;;;;24.60;22.70;;;;;;;17.77;77.02;100465.83;116320;1193;21950;-81
2021/09/12 03:23:55;;;;;;;25.30;23.20;;;;;;;17.74;77.11;100464.46;116103;1199;23738;-81
2021/09/12 03:26:24;;;;;;;25.30;23.20;;;;;;;17.70;77.12;100465.05;116102;1199;22920;-81
2021/09/12 03:28:53;;;;;;;25.90;23.40;;;;;;;17.66;77.11;100464.56;115836;1198;21913;-82
2021/09/12 03:31:23;;;;;;;25.40;23.20;;;;;;;17.63;77.17;100469.27;115486;1198;23487;-81
2021/09/12 03:33:53;;;;;;;26.30;24.00;;;;;;;17.61;77.37;100474.95;115633;1198;22883;-82
2021/09/12 03:36:22;;;;;;;26.20;24.00;;;;;;;17.59;77.40;100474.63;115811;1198;21894;-81
2021/09/12 03:38:51;;;;;;;27.70;25.20;;;;;;;17.57;77.42;100477.51;115757;1200;22925;-82
2021/09/12 03:41:20;;;;;;;27.60;25.00;;;;;;;17.54;77.36;100475.97;116013;1196;22245;-81
2021/09/12 03:43:49;;;;;;;26.10;24.00;;;;;;;17.52;77.63;100473.16;115817;1197;22913;-82
2021/09/12 03:46:19;;;;;;;27.00;25.00;;;;;;;17.52;77.53;100469.64;115809;1198;23560;-82
2021/09/12 03:48:49;;;;;;;27.90;25.50;;;;;;;17.51;77.80;100467.58;116113;1195;21892;-82
2021/09/12 03:51:18;;;;;;;27.00;24.90;;;;;;;17.50;77.77;100463.89;116627;1193;21907;-81
2021/09/12 03:53:47;;;;;;;25.20;23.20;;;;;;;17.49;77.90;100466.15;116720;1192;21936;-81
2021/09/12 03:56:17;;;;;;;27.30;24.90;;;;;;;17.49;77.98;100466.85;116434;1192;21889;-81
2021/09/12 03:58:46;;;;;;;27.50;25.10;;;;;;;17.48;77.99;100466.77;116521;1190;24291;-82
2021/09/12 04:01:15;;;;;;;26.70;24.20;;;;;;;17.49;78.07;100461.17;116470;1192;21948;-82
2021/09/12 04:03:46;;;;;;;26.00;23.80;;;;;;;17.50;78.06;100461.76;116616;1192;21884;-82
2021/09/12 04:06:15;;;;;;;26.90;24.70;;;;;;;17.50;78.19;100464.76;116311;1194;22873;-82
2021/09/12 04:08:44;;;;;;;25.90;23.90;;;;;;;17.50;78.25;100461.47;116252;1195;21908;-82
2021/09/12 04:11:14;;;;;;;25.60;23.50;;;;;;;17.51;78.19;100463.52;116041;1196;23472;-83
2021/09/12 04:13:43;;;;;;;26.80;24.10;;;;;;;17.52;78.24;100465.90;115994;1198;23480;-83
2021/09/12 04:16:13;;;;;;;24.90;22.80;;;;;;;17.53;78.21;100469.05;116090;1197;23519;-83
2021/09/12 04:18:42;;;;;;;25.60;23.50;;;;;;;17.53;78.22;100466.75;115673;1197;23471;-82
2021/09/12 04:21:11;;;;;;;25.70;23.50;;;;;;;17.54;78.37;100466.46;115269;1201;22296;-81
2021/09/12 04:23:41;;;;;;;27.30;24.90;;;;;;;17.54;78.22;100466.30;115214;1203;22857;-82
2021/09/12 04:26:10;;;;;;;25.00;22.90;;;;;;;17.54;78.22;100462.35;115250;1203;24296;-82
2021/09/12 04:28:40;;;;;;;26.10;23.80;;;;;;;17.53;78.28;100461.91;115368;1197;21944;-82
2021/09/12 04:31:11;;;;;;;25.10;22.80;;;;;;;17.53;78.30;100460.30;116025;1198;22926;-82
2021/09/12 04:33:40;;;;;;;26.20;24.00;;;;;;;17.53;78.32;100459.98;115904;1200;21889;-81
2021/09/12 04:36:10;;;;;;;26.60;24.00;;;;;;;17.53;78.31;100456.48;115703;1200;21958;-83
2021/09/12 04:38:39;;;;;;;23.90;22.00;;;;;;;17.52;78.23;100456.73;116033;1197;22927;-81
2021/09/12 04:41:09;;;;;;;25.00;22.60;;;;;;;17.52;78.15;100462.85;116464;1195;22829;-83
2021/09/12 04:43:38;;;;;;;25.20;23.10;;;;;;;17.51;78.20;100461.67;116329;1193;21891;-82
2021/09/12 04:46:17;;;;;;;25.50;23.40;;;;;;;17.51;78.21;100456.08;116166;1195;21939;-82
2021/09/12 04:48:47;;;;;;;26.00;23.90;;;;;;;17.50;78.20;100462.37;116132;1195;21932;-82
2021/09/12 04:51:24;;;;;;;27.70;25.10;;;;;;;17.50;78.27;100465.52;116310;1193;21953;-83
2021/09/12 04:53:55;;;;;;;25.40;23.20;;;;;;;17.50;78.30;100465.61;116289;1192;24171;-82
2021/09/12 04:56:27;;;;;;;27.80;25.50;;;;;;;17.51;78.43;100463.92;116508;1190;22256;-83
2021/09/12 04:59:00;;;;;;;26.40;24.10;;;;;;;17.51;78.41;100463.20;116420;1193;24297;-81
2021/09/12 05:01:32;;;;;;;26.40;24.30;;;;;;;17.52;78.47;100467.05;116653;1190;22651;-81
2021/09/12 05:04:02;;;;;;;24.10;22.10;;;;;;;17.56;78.58;100469.90;116703;1192;22213;-82
2021/09/12 05:06:31;;;;;;;26.60;24.30;;;;;;;17.61;78.72;100471.33;116509;1194;21895;-82
2021/09/12 05:09:00;;;;;;;25.30;23.20;;;;;;;17.65;78.70;100473.22;116403;1193;22106;-82
2021/09/12 05:11:30;;;;;;;24.50;22.60;;;;;;;17.69;78.75;100475.66;116673;1193;23455;-83
2021/09/12 05:13:59;;;;;;;27.60;25.10;;;;;;;17.74;78.65;100474.81;116710;1192;23507;-83
2021/09/12 05:16:29;;;;;;;26.40;24.10;;;;;;;17.79;78.62;100472.16;116453;1192;21916;-82
2021/09/12 05:19:01;;;;;;;25.50;23.40;;;;;;;17.85;78.72;100474.06;116132;1196;23479;-83
2021/09/12 05:21:31;;;;;;;25.80;23.60;;;;;;;17.92;78.65;100471.36;116383;1192;22176;-83
2021/09/12 05:24:01;;;;;;;26.70;24.10;;;;;;;17.98;78.63;100472.52;116353;1195;21890;-82
2021/09/12 05:26:31;;;;;;;24.40;22.40;;;;;;;18.04;78.37;100474.86;116048;1198;22588;-81
2021/09/12 05:29:00;;;;;;;24.80;22.70;;;;;;;18.12;78.43;100479.27;116083;1195;22943;-82
2021/09/12 05:31:29;;;;;;;25.70;23.50;;;;;;;18.21;78.23;100479.47;115877;1195;21901;-82
2021/09/12 05:33:59;;;;;;;25.20;23.00;;;;;;;18.30;78.24;100475.66;116047;1193;21879;-83
2021/09/12 05:36:28;;;;;;;26.10;23.30;;;;;;;18.39;78.02;100475.12;116078;1197;22974;-83
2021/09/12 05:38:57;;;;;;;24.50;22.40;;;;;;;18.47;77.55;100478.31;115985;1196;21887;-84
2021/09/12 05:41:27;;;;;;;25.30;23.00;;;;;;;18.56;77.42;100480.05;115940;1199;23642;-83
2021/09/12 05:43:57;;;;;;;24.30;22.30;;;;;;;18.64;77.25;100479.77;116012;1200;22928;-83
2021/09/12 05:46:26;;;;;;;22.60;20.80;;;;;;;18.72;76.89;100481.05;116340;1196;21910;-82
2021/09/12 05:48:56;;;;;;;23.50;21.50;;;;;;;18.79;76.58;100479.02;116277;1197;22909;-81
2021/09/12 05:51:26;;;;;;;24.80;22.20;;;;;;;18.87;76.23;100478.90;115922;1200;22060;-84
2021/09/12 05:53:56;;;;;;;23.90;22.00;;;;;;;18.95;76.08;100480.64;116032;1200;22629;-84
2021/09/12 05:56:26;;;;;;;22.30;20.30;;;;;;;19.06;76.29;100479.55;116002;1200;22887;-85
2021/09/12 05:58:55;;;;;;;22.10;20.10;;;;;;;19.15;75.77;100478.19;115763;1201;23332;-86
2021/09/12 06:01:25;;;;;;;22.60;20.80;;;;;;;19.25;75.74;100475.86;115588;1203;21924;-83
2021/09/12 06:03:55;;;;;;;22.50;20.50;;;;;;;19.38;75.47;100477.14;115649;1203;21920;-83
2021/09/12 06:06:28;;;;;;;21.70;19.90;;;;;;;19.49;75.06;100483.69;115923;1196;21866;-83
2021/09/12 06:08:58;;;;;;;21.60;19.70;;;;;;;19.57;74.57;100481.46;116231;1195;22121;-85
2021/09/12 06:11:27;;;;;;;22.00;19.80;;;;;;;19.60;73.80;100483.08;116847;1196;21890;-86
2021/09/12 06:13:59;;;;;;;;;;;;;;;19.62;73.67;100492.96;116987;1196;21883;-86
2021/09/12 06:16:31;;;;;;;21.00;19.20;;;;;;;19.59;73.73;100493.89;116646;1195;22133;-83
2021/09/12 06:19:01;;;;;;;24.60;22.40;;;;;;;19.61;73.66;100495.88;116616;1193;21948;-85
2021/09/12 06:21:39;;;;;;;23.10;21.10;;;;;;;19.68;73.53;100500.29;116614;1197;21909;-84
2021/09/12 06:24:09;;;;;;;22.10;20.10;;;;;;;19.73;73.57;100502.86;116596;1196;22646;-85
2021/09/12 06:26:40;;;;;;;22.20;20.50;;;;;;;19.77;72.99;100505.91;116726;1196;21952;-84
2021/09/12 06:29:10;;;;;;;30.40;27.70;;;;;;;19.80;73.00;100503.79;116470;1198;22248;-84
2021/09/12 06:31:40;;;;;;;22.70;20.70;;;;;;;19.83;72.70;100502.33;116905;1197;21897;-86
2021/09/12 06:34:10;;;;;;;24.00;22.10;;;;;;;19.85;72.51;100499.80;116964;1197;21916;-86
2021/09/12 06:36:39;;;;;;;22.60;20.70;;;;;;;19.87;72.33;100496.75;116377;1198;22994;-80
2021/09/12 06:39:09;;;;;;;23.00;21.10;;;;;;;19.89;72.18;100500.44;117250;1185;21924;-82
2021/09/12 06:41:40;;;;;;;23.50;21.20;;;;;;;19.91;72.23;100502.73;116965;1188;23541;-80
2021/09/12 06:44:10;;;;;;;23.20;21.40;;;;;;;19.93;72.10;100501.64;116954;1188;21896;-80
2021/09/12 06:46:39;;;;;;;22.60;20.60;;;;;;;19.93;71.96;100502.61;116827;1192;21895;-82
2021/09/12 06:49:08;;;;;;;21.60;19.80;;;;;;;19.94;71.94;100502.36;116913;1190;21906;-81
2021/09/12 06:51:38;;;;;;;28.90;26.60;;;;;;;19.93;71.72;100501.02;116874;1188;21891;-80
2021/09/12 06:54:11;;;;;;;22.90;21.10;;;;;;;19.93;71.76;100501.80;117064;1190;23622;-81
2021/09/12 06:56:45;;;;;;;23.10;20.90;;;;;;;19.91;71.62;100498.80;117123;1188;21882;-81
2021/09/12 06:59:14;;;;;;;23.70;21.50;;;;;;;19.91;71.86;100499.67;116930;1190;21891;-80
2021/09/12 07:01:43;;;;;;;22.70;20.80;;;;;;;19.92;71.85;100501.19;116870;1189;21883;-81
2021/09/12 07:04:13;;;;;;;22.30;20.30;;;;;;;19.96;72.23;100500.27;116710;1187;23566;-81
2021/09/12 07:06:43;;;;;;;22.30;20.60;;;;;;;20.04;72.22;100502.61;116809;1185;21896;-80
2021/09/12 07:09:13;;;;;;;25.80;23.80;;;;;;;20.07;71.72;100503.52;116840;1188;23588;-81
2021/09/12 07:11:42;;;;;;;22.80;21.00;;;;;;;20.09;71.67;100509.17;116747;1192;21860;-81
2021/09/12 07:14:11;;;;;;;25.10;22.70;;;;;;;20.11;71.41;100510.61;116685;1192;21886;-81
2021/09/12 07:16:45;;;;;;;23.80;21.60;;;;;;;20.09;71.15;100513.02;116676;1192;21892;-79
2021/09/12 07:19:15;;;;;;;26.60;24.00;;;;;;;20.11;71.77;100515.75;116826;1187;22765;-81
2021/09/12 07:21:45;;;;;;;26.30;23.60;;;;;;;20.18;71.53;100514.84;116758;1190;21900;-80
2021/09/12 07:24:15;;;;;;;33.30;30.40;;;;;;;20.20;71.30;100512.15;116621;1190;23075;-81
2021/09/12 07:26:48;;;;;;;31.10;28.40;;;;;;;20.27;71.63;100514.64;116802;1192;21965;-81
2021/09/12 07:29:24;;;;;;;24.40;22.00;;;;;;;20.38;71.71;100517.77;116698;1192;23537;-80
2021/09/12 07:31:55;;;;;;;28.70;26.30;;;;;;;20.51;71.53;100519.00;116627;1190;21903;-81
2021/09/12 07:34:28;;;;;;;23.30;21.50;;;;;;;20.59;70.89;100519.61;116341;1191;21994;-78
2021/09/12 07:36:57;;;;;;;23.70;21.80;;;;;;;20.68;70.94;100522.36;116566;1190;21997;-80
2021/09/12 07:39:27;;;;;;;21.80;20.00;;;;;;;20.78;70.74;100520.10;116382;1192;23592;-79
2021/09/12 07:42:00;;;;;;;23.60;21.20;;;;;;;20.82;69.60;100527.07;116411;1190;21910;-79
2021/09/12 07:44:29;;;;;;;21.50;19.60;;;;;;;20.77;69.16;100534.41;116438;1190;21903;-79
2021/09/12 07:46:58;;;;;;;23.10;21.30;;;;;;;20.74;69.48;100532.31;116102;1191;21911;-80
2021/09/12 07:49:28;;;;;;;22.50;20.40;;;;;;;20.76;69.56;100531.17;115854;1198;21896;-79
2021/09/12 07:51:57;;;;;;;28.50;25.60;;;;;;;20.85;70.12;100524.83;115846;1195;23469;-81
2021/09/12 07:54:26;;;;;;;21.90;20.20;;;;;;;20.99;70.34;100524.30;116009;1193;23076;-81
2021/09/12 07:56:55;;;;;;;21.50;19.60;;;;;;;21.16;70.20;100526.21;116297;1191;21921;-81
2021/09/12 07:59:27;;;;;;;21.60;19.80;;;;;;;21.34;69.83;100527.14;116392;1196;21900;-82
2021/09/12 08:01:57;;;;;;;20.00;18.30;;;;;;;21.51;68.99;100525.48;116281;1193;22433;-81
2021/09/12 08:04:26;;;;;;;21.10;19.50;;;;;;;21.64;68.39;100530.75;116060;1195;21892;-80
2021/09/12 08:06:56;;;;;;;22.20;20.30;;;;;;;21.72;67.91;100528.17;116415;1192;21988;-80
2021/09/12 08:09:25;;;;;;;20.50;18.80;;;;;;;21.79;67.39;100528.87;116857;1190;21959;-79
2021/09/12 08:11:54;;;;;;;20.10;18.30;;;;;;;21.86;67.02;100525.40;116947;1186;24147;-81
2021/09/12 08:14:26;;;;;;;21.60;19.10;;;;;;;21.89;66.64;100529.06;116836;1190;21911;-81
2021/09/12 08:16:55;;;;;;;19.70;18.10;;;;;;;21.92;66.74;100531.52;116646;1193;22309;-81
2021/09/12 08:19:24;;;;;;;18.10;16.70;;;;;;;21.96;66.36;100531.52;116653;1192;22195;-80
2021/09/12 08:21:53;;;;;;;18.10;16.30;;;;;;;21.98;66.45;100531.96;116752;1188;21921;-81
2021/09/12 08:24:23;;;;;;;20.20;18.10;;;;;;;22.04;66.44;100534.52;116694;1193;23588;-81
2021/09/12 08:26:52;;;;;;;21.90;19.90;;;;;;;22.07;66.08;100536.73;116737;1187;21906;-81
2021/09/12 08:29:21;;;;;;;20.30;18.30;;;;;;;22.14;66.41;100537.90;116741;1188;24235;-81
2021/09/12 08:31:50;;;;;;;18.80;17.30;;;;;;;22.24;66.25;100534.44;116700;1192;21889;-81
2021/09/12 08:34:22;;;;;;;22.20;20.00;;;;;;;22.31;65.76;100536.70;116701;1194;22156;-80
2021/09/12 08:36:51;;;;;;;20.10;18.50;;;;;;;22.33;65.38;100534.32;116336;1191;21915;-81
2021/09/12 08:39:21;;;;;;;21.90;19.70;;;;;;;22.37;65.35;100535.17;116300;1195;21930;-81
2021/09/12 08:41:50;;;;;;;22.10;20.10;;;;;;;22.41;65.41;100540.00;116411;1192;21896;-81
2021/09/12 08:44:20;;;;;;;21.10;19.20;;;;;;;22.47;65.22;100538.96;116506;1196;21900;-82
2021/09/12 08:46:49;;;;;;;22.90;20.90;;;;;;;22.48;64.86;100539.10;116634;1193;22935;-82
2021/09/12 08:49:18;;;;;;;20.90;19.30;;;;;;;22.46;64.72;100543.48;116547;1189;21898;-81
2021/09/12 08:51:48;;;;;;;18.80;17.30;;;;;;;22.45;64.90;100544.39;116280;1196;21976;-82
2021/09/12 08:54:17;;;;;;;17.70;16.20;;;;;;;22.45;64.86;100547.39;116412;1195;22867;-81
2021/09/12 08:56:46;;;;;;;18.20;16.70;;;;;;;22.45;65.03;100545.55;116574;1189;21850;-81
2021/09/12 08:59:32;;;;;;;19.50;17.90;;;;;;;22.50;65.16;100548.77;116589;1189;22795;-82
2021/09/12 09:02:05;;;;;;;19.10;17.60;;;;;;;22.63;65.29;100548.20;116636;1192;21894;-81
2021/09/12 09:04:36;;;;;;;18.90;17.40;;;;;;;22.87;65.58;100545.05;116620;1189;21925;-81
2021/09/12 09:07:09;;;;;;;19.10;17.70;;;;;;;23.23;65.41;100545.31;116385;1196;21910;-82
2021/09/12 09:09:47;;;;;;;21.90;19.80;;;;;;;23.55;63.67;100543.98;116533;1190;21913;-80
2021/09/12 09:12:33;;;;;;;19.60;18.00;;;;;;;23.79;62.87;100548.45;116734;1187;21902;-83
2021/09/12 09:15:21;;;;;;;19.20;17.60;;;;;;;24.13;62.47;100551.34;116461;1196;22915;-82
2021/09/12 09:17:54;;;;;;;18.60;16.80;;;;;;;24.40;61.12;100552.02;116024;1201;23523;-81
2021/09/12 09:20:33;;;;;;;18.90;17.40;;;;;;;24.67;60.66;100549.96;116051;1197;22651;-81
2021/09/12 09:23:07;;;;;;;18.00;16.20;;;;;;;24.97;59.53;100554.02;116125;1195;23580;-80
2021/09/12 09:25:55;;;;;;;17.50;15.80;;;;;;;25.18;58.69;100552.52;116664;1194;21923;-80
2021/09/12 09:28:25;;;;;;;16.20;14.90;;;;;;;25.49;58.57;100547.19;116557;1198;21992;-83
2021/09/12 09:30:57;;;;;;;15.60;14.10;;;;;;;25.80;57.28;100552.52;116196;1198;21905;-82
2021/09/12 09:33:29;;;;;;;15.70;14.20;;;;;;;25.94;55.91;100554.95;116481;1195;22022;-83
2021/09/12 09:36:08;;;;;;;15.00;13.70;;;;;;;25.92;54.88;100551.88;116406;1196;21964;-81
2021/09/12 09:38:40;;;;;;;14.20;13.00;;;;;;;25.87;55.07;100551.69;116652;1193;21898;-82
2021/09/12 09:41:13;;;;;;;15.60;14.30;;;;;;;26.02;55.99;100546.70;116668;1195;22112;-81
2021/09/12 09:43:44;;;;;;;12.40;11.50;;;;;;;26.34;55.49;100541.52;116775;1193;21908;-81
2021/09/12 09:46:48;;;;;;;12.70;11.40;;;;;;;26.63;54.02;100541.88;117036;1193;21952;-81
2021/09/12 09:49:39;;;;;;;12.90;11.90;;;;;;;26.79;52.98;100543.84;116728;1193;22023;-81
2021/09/12 09:52:13;;;;;;;13.90;12.80;;;;;;;26.84;52.68;100541.89;116994;1190;22415;-82
2021/09/12 09:54:43;;;;;;;13.10;12.20;;;;;;;26.85;52.37;100546.12;117243;1188;21900;-81
2021/09/12 09:57:12;;;;;;;14.40;13.10;;;;;;;26.75;51.83;100544.98;116929;1192;23389;-81
2021/09/12 09:59:42;;;;;;;12.60;11.60;;;;;;;26.52;51.39;100540.98;116841;1192;22912;-81
2021/09/12 10:02:14;;;;;;;14.40;13.10;;;;;;;26.24;51.90;100538.80;117024;1190;21898;-82
2021/09/12 10:04:46;;;;;;;12.00;10.90;;;;;;;26.02;52.79;100535.88;117223;1190;21904;-81
2021/09/12 10:07:15;;;;;;;11.70;10.80;;;;;;;25.91;53.12;100530.43;117021;1190;21904;-82
2021/09/12 10:09:45;;;;;;;13.00;11.70;;;;;;;25.92;53.85;100530.27;116853;1190;21885;-81
2021/09/12 10:12:15;;;;;;;12.60;11.50;;;;;;;26.11;53.77;100530.01;116999;1189;21889;-81
2021/09/12 10:14:53;;;;;;;11.80;10.90;;;;;;;26.26;52.99;100529.27;116683;1193;21889;-82
2021/09/12 10:17:29;;;;;;;13.60;12.40;;;;;;;26.38;52.49;100524.98;116660;1192;21915;-80
2021/09/12 10:20:23;;;;;;;12.80;11.70;;;;;;;26.45;52.42;100521.80;116689;1192;21954;-79
2021/09/12 10:22:58;;;;;;;12.40;11.30;;;;;;;26.53;51.98;100520.73;116590;1192;21921;-80
2021/09/12 10:25:29;;;;;;;14.20;12.60;;;;;;;26.60;51.63;100517.49;116724;1192;21900;-80
2021/09/12 10:28:04;;;;;;;14.30;12.90;;;;;;;26.54;50.87;100511.41;116510;1192;22103;-81
2021/09/12 10:30:42;;;;;;;14.20;12.80;;;;;;;26.44;51.11;100513.55;116509;1192;22441;-80
2021/09/12 10:33:26;;;;;;;15.00;13.80;;;;;;;26.31;51.13;100515.31;116597;1193;22919;-80
2021/09/12 10:36:01;;;;;;;14.20;12.70;;;;;;;26.08;51.03;100519.38;116816;1190;21883;-80
2021/09/12 10:38:33;;;;;;;13.30;12.20;;;;;;;25.88;52.03;100516.99;116921;1189;21911;-80
2021/09/12 10:41:02;;;;;;;13.20;12.10;;;;;;;25.81;52.48;100520.64;116985;1190;23009;-80
2021/09/12 10:43:31;;;;;;;12.80;11.90;;;;;;;25.64;52.41;100521.19;116839;1188;22937;-79
2021/09/12 10:46:03;;;;;;;12.80;11.70;;;;;;;25.45;52.98;100517.09;116763;1190;21894;-79
2021/09/12 10:48:49;;;;;;;14.20;13.00;;;;;;;25.49;54.14;100521.49;116789;1190;21886;-79
2021/09/12 10:51:18;;;;;;;12.70;11.70;;;;;;;25.68;53.97;100516.13;116604;1190;23297;-79
2021/09/12 10:53:55;;;;;;;12.90;11.80;;;;;;;25.62;52.69;100514.09;116774;1190;21887;-80
2021/09/12 10:56:24;;;;;;;10.80;9.90;;;;;;;25.62;52.94;100516.27;116914;1188;22804;-80
2021/09/12 10:59:09;;;;;;;9.70;9.00;;;;;;;25.63;52.40;100514.41;116882;1188;22911;-80
2021/09/12 11:01:49;;;;;;;9.50;8.70;;;;;;;25.64;51.78;100514.42;117194;1189;22938;-80
2021/09/12 11:04:30;;;;;;;11.50;10.50;;;;;;;25.64;51.08;100515.35;116844;1190;21887;-80
2021/09/12 11:07:04;;;;;;;9.60;8.80;;;;;;;25.52;50.54;100517.02;116796;1189;22138;-80
2021/09/12 11:09:34;;;;;;;10.90;10.00;;;;;;;25.34;50.45;100511.20;116586;1192;21910;-79
2021/09/12 11:12:06;;;;;;;10.00;9.20;;;;;;;25.21;50.87;100509.48;116457;1188;23607;-80
2021/09/12 11:14:35;;;;;;;12.80;10.00;;;;;;;25.14;51.19;100505.52;116629;1192;22003;-79
2021/09/12 11:17:07;;;;;;;11.00;10.00;;;;;;;25.12;51.35;100506.24;116583;1193;21899;-79
2021/09/12 11:19:37;;;;;;;11.10;10.10;;;;;;;25.14;51.56;100500.04;116925;1191;22942;-80